Aérodrome :
LOGIN :

S'inscrire | Disclaimer

   EN    FR    IT 

 










Légende :    VFR   VFR Marginal   IFR   IFR Intensif   IFR Très Intensif
Visi : 
Plafond : 
>= 8 km
>= 3000ft
5 à 8 km
1000 à 3000 ft
1500m à 5 km
500 à 1000 ft
800 à 1500m
200 à 500 ft
< 800m
< 200 ft
Symboles :   Orages  Brouillard  Fortes neiges  Fortes précipitations  Vent > 20 kt
SIGMETs :   Divers  Orages  Givrage  Turbulence  Onde Orograph.  Cendres Volcan.







- Altitude de l'aérodrome : 82 ft
- Code IATA : QIE
- Voir les cartes d'approche


LFMI - Istres

DERNIER METAR :
  • 152200Z AUTO 02006KT 9000 OVC042 05/02 Q1019 TEMPO 4000 RA FEW013CB BKN014

METARs EXPIRÉS :
  • 152130Z AUTO 01004KT 9000 -RA BKN044 BKN056 BKN068 05/01 Q1019 TEMPO 4000 RA FEW013CB BKN014
  • 152100Z AUTO 33003KT 9999 SCT047 BKN064 OVC084 05/01 Q1020 TEMPO 4000 RA FEW013CB BKN014
  • 152030Z AUTO 33004KT 9999 OVC047 05/00 Q1020 TEMPO 4000 RA FEW013CB BKN014
  • 152000Z AUTO 32006KT 9999 BKN046 BKN066 OVC092 05/M00 Q1020 TEMPO RA

TAF AMD TAF LFMI
Valide du 15 à 21h jusqu'au 16 à 21h UTC


152021Z 1521/1621 VRB03KT 9999 BKN040
TEMPO 1521/1621 4000 RA FEW013CB BKN014
Pas de NOTAMs connus pour ce terrain.



MET'MAP, la Météo Aéronautique d'un coup d'oeil ! - Copyright ORBIFLY Décembre 2007 - Disclaimer

ORBIFLY MET'MAP TEAM :

Programmation & Développement : Alexandra Zaïnal
Conception & Développement : Baudouin d'Aumeries
Co-Programmation & Développement : Marc-Olivier Méhu
Soutien technique & logistique : Manuel Goepfert

Contact : metmap@orbifly.com




SOURCES & CREDITS :

   NOAA